Terminal Aerodrome Forecast
Issued by NWS

Home | Current Version | Previous Version | Text Only | Print | Product List | Glossary On
Versions: 1 2 3 4 5 6 7 8 9 10 11 12 13
000
FTUS45 KABQ 271727
TAFSAF
TAF
KSAF 271727Z 2718/2818 01008KT P6SM FEW080 SCT150
     FM272000 33008KT P6SM SCT090 SCT150
     FM272300 12012KT P6SM VCSH BKN090
     FM280400 14006KT P6SM BKN130
     FM280700 36006KT P6SM FEW150
     FM281700 24006KT P6SM FEW090=

USA.gov is the U.S. government's official web portal to all federal, state and local government web resources and services.